Flight Track Log - Related Links

Times and Time Zones

All times are in EDT time to prevent confusion due to time zone crossing. See the SWA1718 flight status page for this flight to view local times or setup timezone preferences in your user account.

Time Position Orientation Groundspeed Altitude Reporting Facility
EDT Latitude Longitude Course Direction KTS MPH feet Rate Location/Type
Thu 07:13:13 AM 41.7667 -87.8000 282° West 173 199 2,700  Level Chicago TRACON
Thu 07:14:13 AM 41.7667 -87.8667 270° West 204 235 3,500 624 Climbing Chicago TRACON
Thu 07:15:18 AM 41.7631 -87.9592 267° West 219 252 4,000 1,571 Climbing Chicago Center
Thu 07:16:19 AM 41.7603 -88.0506 268° West 239 275 6,800 3,197 Climbing Chicago Center
Thu 07:17:20 AM 41.7564 -88.1494 267° West 265 305 10,500 2,852 Climbing Chicago Center
Thu 07:18:00 AM 41.8997 -88.4813 282° West  Level FlightAware Approximate
Thu 07:18:21 AM 41.7533 -88.2572 268° West 289 333 12,600  Level Chicago Center
Thu 07:19:22 AM 41.7494 -88.4128 268° West 350 403 16,200 3,098 Climbing Chicago Center
Thu 07:20:23 AM 41.7439 -88.5461 267° West 362 417 18,900 2,607 Climbing Chicago Center
Thu 07:21:24 AM 41.7367 -88.6861 266° West 382 440 21,500 2,459 Climbing Chicago Center
Thu 07:22:25 AM 41.7142 -88.8250 258° West 388 447 23,900 2,213 Climbing Chicago Center
Thu 07:23:26 AM 41.6972 -88.9708 261° West 399 459 26,000 2,000 Climbing Chicago Center
Thu 07:24:28 AM 41.6775 -89.1181 260° West 402 463 28,000 1,854 Climbing Chicago Center
Thu 07:25:29 AM 41.6592 -89.2697 261° West 410 472 29,800 2,115 Climbing Chicago Center
Thu 07:26:30 AM 41.6381 -89.4506 261° West 413 475 32,300 2,098 Climbing Chicago Center
Thu 07:27:32 AM 41.6169 -89.5983 259° West 410 472 34,100 1,561 Climbing Chicago Center
Thu 07:28:33 AM 41.5978 -89.7472 260° West 410 472 35,500 1,377 Climbing Chicago Center
Thu 07:29:34 AM 41.5781 -89.8944 260° West 406 467 36,900 1,220 Climbing Chicago Center
Thu 07:30:36 AM 41.5592 -90.0394 260° West 402 463 38,000 537 Climbing Chicago Center
Thu 07:31:37 AM 41.5383 -90.1839 259° West 398 458 38,000  Level Chicago Center
Thu 07:32:38 AM 41.5194 -90.3286 260° West 398 458 38,000  Level Chicago Center
Thu 07:33:40 AM 41.4989 -90.4744 259° West 399 459 38,000  Level Chicago Center
Thu 07:34:41 AM 41.4786 -90.6194 259° West 400 460 38,000  Level Chicago Center
Thu 07:35:43 AM 41.4539 -90.7925 259° West 398 458 38,000  Level Chicago Center
Thu 07:36:44 AM 41.4342 -90.9353 260° West 396 456 38,000  Level Chicago Center
Thu 07:37:46 AM 41.4142 -91.0811 260° West 397 457 38,000  Level Chicago Center
Thu 07:38:47 AM 41.3906 -91.2275 258° West 401 461 38,000  Level Chicago Center
Thu 07:39:49 AM 41.3697 -91.3725 259° West 402 463 38,000  Level Chicago Center
Thu 07:40:50 AM 41.3483 -91.5194 259° West 404 465 38,000  Level Chicago Center
Thu 07:41:51 AM 41.3264 -91.6647 259° West 404 465 38,000  Level Chicago Center
Thu 07:42:53 AM 41.3044 -91.8111 259° West 406 467 38,000  Level Chicago Center
Thu 07:43:54 AM 41.2767 -91.9878 258° West 409 471 38,000  Level Chicago Center
Thu 07:44:56 AM 41.2536 -92.1367 258° West 412 474 38,000  Level Chicago Center
Thu 07:45:57 AM 41.2317 -92.2856 259° West 413 475 38,000  Level Chicago Center
Thu 07:46:59 AM 41.2083 -92.4269 258° West 411 473 38,000  Level Chicago Center
Thu 07:48:00 AM 41.1842 -92.5747 258° West 414 476 38,000  Level Chicago Center
Thu 07:48:46 AM 41.1664 -92.6956 259° West 414 476 38,000  Level Minneapolis Center
Thu 07:49:47 AM 41.1414 -92.8431 257° West 415 478 38,000  Level Minneapolis Center
Thu 07:51:00 AM 41.1128 -93.0228 258° West 418 481 38,000  Level Minneapolis Center
Thu 07:52:02 AM 41.0833 -93.2011 258° West 418 481 38,000  Level Minneapolis Center
Thu 07:53:03 AM 41.0581 -93.3503 257° West 419 482 38,000  Level Minneapolis Center
Thu 07:54:04 AM 41.0331 -93.4981 257° West 418 481 38,000  Level Minneapolis Center
Thu 07:55:05 AM 41.0089 -93.6442 258° West 414 476 38,000  Level Minneapolis Center
Thu 07:56:06 AM 40.9844 -93.7936 258° West 418 481 38,000  Level Minneapolis Center
Thu 07:57:20 AM 40.9589 -93.9422 257° West 418 481 38,000  Level Minneapolis Center
Thu 07:58:21 AM 40.9222 -94.1542 257° West 426 490 38,000  Level Minneapolis Center
Thu 07:59:22 AM 40.8961 -94.3036 257° West 424 488 38,000  Level Minneapolis Center
Thu 08:00:36 AM 40.8683 -94.4544 256° West 425 489 38,000  Level Minneapolis Center
Thu 08:01:37 AM 40.8344 -94.6464 257° West 423 487 38,000  Level Minneapolis Center
Thu 08:02:39 AM 40.8075 -94.7967 257° West 421 484 38,000  Level Minneapolis Center
Thu 08:03:40 AM 40.7797 -94.9458 256° West 419 482 38,000  Level Minneapolis Center
Thu 08:04:41 AM 40.7533 -95.0958 257° West 418 481 38,000  Level Minneapolis Center
Thu 08:05:43 AM 40.7258 -95.2453 256° West 419 482 38,000  Level Minneapolis Center
Thu 08:06:44 AM 40.6989 -95.3950 257° West 418 481 38,000  Level Minneapolis Center
Thu 08:07:45 AM 40.6703 -95.5442 256° West 418 481 38,000  Level Minneapolis Center
Thu 08:08:47 AM 40.6436 -95.6933 257° West 418 481 38,000  Level Minneapolis Center
Thu 08:09:48 AM 40.6153 -95.8408 256° West 415 478 38,000  Level Minneapolis Center
Thu 08:10:50 AM 40.5864 -95.9889 256° West 415 478 38,000  Level Minneapolis Center
Thu 08:11:51 AM 40.5583 -96.1364 256° West 414 476 38,000  Level Minneapolis Center
Thu 08:12:52 AM 40.5306 -96.2822 256° West 411 473 38,000  Level Minneapolis Center
Thu 08:13:54 AM 40.4950 -96.4575 255° West 411 473 38,000  Level Minneapolis Center
Thu 08:14:55 AM 40.4667 -96.6072 256° West 417 480 38,000  Level Minneapolis Center
Thu 08:15:57 AM 40.4381 -96.7519 255° West 413 475 38,000  Level Minneapolis Center
Thu 08:16:58 AM 40.4086 -96.9003 255° West 417 480 38,000  Level Minneapolis Center
Thu 08:18:00 AM 40.3789 -97.0483 255° West 418 481 38,000  Level Minneapolis Center
Thu 08:19:01 AM 40.3481 -97.1978 255° West 422 486 38,000  Level Minneapolis Center
Thu 08:20:03 AM 40.3167 -97.3508 255° West 424 488 38,000  Level Minneapolis Center
Thu 08:21:04 AM 40.2925 -97.4711 255° West 425 489 38,000  Level Minneapolis Center
Thu 08:22:06 AM 40.2547 -97.6514 255° West 426 490 38,000  Level Minneapolis Center
Thu 08:23:07 AM 40.2178 -97.8317 255° West 425 489 38,000  Level Minneapolis Center
Thu 08:24:09 AM 40.1861 -97.9800 254° West 423 487 38,000  Level Minneapolis Center
Thu 08:25:10 AM 40.1553 -98.1278 255° West 421 484 38,000  Level Minneapolis Center
Thu 08:26:12 AM 40.1231 -98.2753 254° West 421 484 38,000  Level Minneapolis Center
Thu 08:27:13 AM 40.0917 -98.4225 254° West 420 483 38,000  Level Minneapolis Center
Thu 08:28:15 AM 40.0661 -98.5414 254° West 421 484 38,000  Level Minneapolis Center
Thu 08:29:17 AM 40.0272 -98.7186 254° West 422 486 38,000  Level Minneapolis Center
Thu 08:30:18 AM 39.9947 -98.8675 254° West 423 487 38,000  Level Minneapolis Center
Thu 08:31:05 AM 39.9675 -98.9869 253° West 425 489 38,000  Level Denver Center
Thu 08:32:06 AM 39.9353 -99.1372 254° West 429 494 38,000  Level Denver Center
Thu 08:33:07 AM 39.9019 -99.2872 254° West 429 494 38,000  Level Denver Center
Thu 08:34:08 AM 39.8681 -99.4367 254° West 431 496 38,000  Level Denver Center
Thu 08:35:09 AM 39.8339 -99.5872 254° West 432 497 38,000  Level Denver Center
Thu 08:36:10 AM 39.7986 -99.7383 253° West 435 501 38,000  Level Denver Center
Thu 08:37:11 AM 39.7644 -99.8914 254° West 437 503 38,000  Level Denver Center
Thu 08:38:12 AM 39.7231 -100.0694 253° West 440 506 38,000  Level Denver Center
Thu 08:39:13 AM 39.6892 -100.2133 253° West 438 504 38,000  Level Denver Center
Thu 08:40:14 AM 39.6556 -100.3569 253° West 435 501 38,000  Level Denver Center
Thu 08:41:15 AM 39.6156 -100.5236 253° West 432 497 38,000  Level Denver Center
Thu 08:42:16 AM 39.5817 -100.6681 253° West 434 499 38,000  Level Denver Center
Thu 08:43:17 AM 39.5472 -100.8092 252° West 431 496 38,000  Level Denver Center
Thu 08:44:18 AM 39.5075 -100.9767 253° West 434 499 38,000  Level Denver Center
Thu 08:45:19 AM 39.4733 -101.1219 253° West 438 504 38,000  Level Denver Center
Thu 08:46:20 AM 39.4389 -101.2653 253° West 436 502 38,000  Level Denver Center
Thu 08:47:21 AM 39.3972 -101.4308 252° West 433 498 38,000  Level Denver Center
Thu 08:48:22 AM 39.3633 -101.5717 253° West 430 495 38,000  Level Denver Center
Thu 08:49:23 AM 39.3214 -101.7369 252° West 433 498 38,000  Level Denver Center
Thu 08:50:24 AM 39.2892 -101.8639 252° West 426 490 38,000  Level Denver Center
Thu 08:51:25 AM 39.2486 -102.0286 252° West 430 495 38,000  Level Denver Center
Thu 08:52:26 AM 39.2131 -102.1664 252° West 424 488 38,000  Level Denver Center
Thu 08:53:27 AM 39.1722 -102.3275 252° West 425 489 38,000  Level Denver Center
Thu 08:54:28 AM 39.1361 -102.4650 251° West 424 488 38,000  Level Denver Center
Thu 08:55:29 AM 39.1011 -102.6028 252° West 423 487 38,000  Level Denver Center
Thu 08:56:30 AM 39.0647 -102.7458 252° West 423 487 38,000  Level Denver Center
Thu 08:57:31 AM 39.0261 -102.8917 251° West 426 490 38,000  Level Denver Center
Thu 08:58:32 AM 38.9878 -103.0367 251° West 424 488 38,000  Level Denver Center
Thu 08:59:33 AM 38.9500 -103.1831 252° West 427 491 38,000  Level Denver Center
Thu 09:00:34 AM 38.9128 -103.3267 252° West 421 484 38,000  Level Denver Center
Thu 09:01:35 AM 38.8731 -103.4714 251° West 424 488 38,000  Level Denver Center
Thu 09:02:36 AM 38.8350 -103.6128 251° West 420 483 38,000  Level Denver Center
Thu 09:03:36 AM 38.7928 -103.7700 251° West 417 480 38,000  Level Denver Center
Thu 09:04:37 AM 38.7569 -103.9019 251° West 412 474 38,000  Level Denver Center
Thu 09:05:38 AM 38.7147 -104.0572 251° West 415 478 38,000  Level Denver Center
Thu 09:06:39 AM 38.6817 -104.1778 251° West 415 478 38,000  Level Denver Center
Thu 09:07:40 AM 38.6497 -104.2950 251° West 414 476 38,000  Level Denver Center
Thu 09:08:41 AM 38.6044 -104.4603 251° West 417 480 38,000  Level Denver Center
Thu 09:09:42 AM 38.5650 -104.6014 250° West 417 480 38,000  Level Denver Center
Thu 09:10:43 AM 38.5256 -104.7453 251° West 422 486 38,000  Level Denver Center
Thu 09:11:44 AM 38.4844 -104.8872 250° West 423 487 38,000  Level Denver Center
Thu 09:12:45 AM 38.4439 -105.0322 250° West 427 491 38,000  Level Denver Center
Thu 09:13:46 AM 38.4017 -105.1775 250° West 431 496 38,000  Level Denver Center
Thu 09:14:46 AM 38.3528 -105.3489 250° West 435 501 38,000  Level Denver Center
Thu 09:15:47 AM 38.3147 -105.4803 250° West 436 502 38,000  Level Denver Center
Thu 09:16:48 AM 38.2692 -105.6400 250° West 431 496 38,000  Level Denver Center
Thu 09:17:49 AM 38.2300 -105.7744 250° West 426 490 38,000  Level Denver Center
Thu 09:18:50 AM 38.1906 -105.9103 250° West 427 491 38,000  Level Denver Center
Thu 09:19:51 AM 38.1444 -106.0672 250° West 425 489 38,000  Level Denver Center
Thu 09:20:52 AM 38.1067 -106.1936 249° West 426 490 38,000  Level Denver Center
Thu 09:21:53 AM 38.0642 -106.3347 249° West 422 486 38,000  Level Denver Center
Thu 09:22:55 AM 38.0181 -106.4892 249° West 418 481 38,000  Level Denver Center
Thu 09:23:55 AM 37.9800 -106.6172 249° West 414 476 38,000  Level Denver Center
Thu 09:24:56 AM 37.9336 -106.7711 249° West 418 481 38,000  Level Denver Center
Thu 09:25:57 AM 37.8931 -106.9044 249° West 423 487 38,000  Level Denver Center
Thu 09:26:59 AM 37.8522 -107.0367 249° West 422 486 38,000  Level Denver Center
Thu 09:28:00 AM 37.8100 -107.1778 249° West 424 488 38,000  Level Denver Center
Thu 09:29:01 AM 37.7617 -107.3342 249° West 428 493 38,000  Level Denver Center
Thu 09:30:14 AM 37.7203 -107.4664 248° West 424 488 38,000  Level Denver Center
Thu 09:31:15 AM 37.6653 -107.6447 249° West 428 493 38,000  Level Denver Center
Thu 09:32:16 AM 37.6222 -107.7778 248° West 428 493 38,000  Level Denver Center
Thu 09:33:17 AM 37.5808 -107.9131 249° West 431 496 38,000  Level Denver Center
Thu 09:34:18 AM 37.5314 -108.0686 248° West 430 495 38,000  Level Denver Center
Thu 09:35:20 AM 37.4889 -108.2019 248° West 429 494 38,000  Level Denver Center
Thu 09:36:21 AM 37.4389 -108.3572 248° West 429 494 38,000  Level Denver Center
Thu 09:37:22 AM 37.3972 -108.4906 249° West 430 495 38,000  Level Denver Center
Thu 09:38:23 AM 37.3547 -108.6211 248° West 425 489 38,000  Level Denver Center
Thu 09:39:24 AM 37.3058 -108.7697 248° West 417 480 38,000  Level Denver Center
Thu 09:40:25 AM 37.2647 -108.8983 248° West 414 476 38,000  Level Denver Center
Thu 09:41:27 AM 37.2161 -109.0469 248° West 413 475 38,000  Level Denver Center
Thu 09:42:28 AM 37.1811 -109.1517 247° West 411 473 38,000  Level Denver Center
Thu 09:43:29 AM 37.1328 -109.2986 248° West 410 472 38,000  Level Denver Center
Thu 09:44:30 AM 37.0836 -109.4464 247° West 411 473 38,000  Level Denver Center
Thu 09:45:32 AM 37.0400 -109.5750 247° West 416 479 38,000  Level Denver Center
Thu 09:46:33 AM 36.9917 -109.7214 248° West 413 475 38,000  Level Denver Center
Thu 09:47:34 AM 36.9503 -109.8447 247° West 408 470 38,000  Level Denver Center
Thu 09:48:35 AM 36.9094 -109.9669 247° West 402 463 38,000  Level Denver Center
Thu 09:49:36 AM 36.8594 -110.1097 246° West 402 463 38,000  Level Denver Center
Thu 09:50:50 AM 36.8208 -110.2261 248° West 400 460 38,000  Level Denver Center
Thu 09:51:51 AM 36.7686 -110.3786 247° West 398 458 38,000  Level Denver Center
Thu 09:52:53 AM 36.7261 -110.5042 247° West 395 455 38,000  Level Denver Center
Thu 09:53:54 AM 36.6739 -110.6561 247° West 397 457 38,000  Level Denver Center
Thu 09:54:55 AM 36.6311 -110.7825 247° West 396 456 38,000  Level Denver Center
Thu 09:55:56 AM 36.5864 -110.9094 246° West 399 459 38,000  Level Denver Center
Thu 09:56:58 AM 36.5417 -111.0364 246° West 400 460 38,000  Level Denver Center
Thu 09:57:59 AM 36.4967 -111.1642 246° West 402 463 38,000  Level Denver Center
Thu 09:59:00 AM 36.4492 -111.2908 245° Southwest 404 465 38,000  Level Denver Center
Thu 10:00:01 AM 36.4033 -111.4156 245° Southwest 400 460 38,000  Level Denver Center
Thu 10:01:03 AM 36.3556 -111.5419 245° Southwest 401 461 38,000  Level Denver Center
Thu 10:02:04 AM 36.3103 -111.6669 246° West 400 460 38,000  Level Denver Center
Thu 10:03:05 AM 36.2628 -111.7939 245° Southwest 403 464 38,000  Level Denver Center
Thu 10:03:48 AM 36.2247 -111.8964 245° Southwest 401 461 38,000  Level Los Angeles Center
Thu 10:04:50 AM 36.1756 -112.0231 244° Southwest 401 461 38,000  Level Los Angeles Center
Thu 10:05:51 AM 36.1292 -112.1467 245° Southwest 398 458 38,000  Level Los Angeles Center
Thu 10:06:53 AM 36.0828 -112.2697 245° Southwest 398 458 38,000  Level Los Angeles Center
Thu 10:07:55 AM 36.0386 -112.3908 246° West 395 455 38,000  Level Los Angeles Center
Thu 10:08:56 AM 35.9825 -112.5344 244° Southwest 390 449 38,000  Level Los Angeles Center
Thu 10:09:57 AM 35.9350 -112.6603 245° Southwest 393 452 38,000  Level Los Angeles Center
Thu 10:10:59 AM 35.8864 -112.7872 245° Southwest 400 460 38,000  Level Los Angeles Center
Thu 10:12:00 AM 35.8406 -112.9053 244° Southwest 399 459 38,000  Level Los Angeles Center
Thu 10:13:02 AM 35.7944 -113.0278 245° Southwest 399 459 38,000  Level Los Angeles Center
Thu 10:14:04 AM 35.7461 -113.1508 244° Southwest 403 464 38,000  Level Los Angeles Center
Thu 10:15:05 AM 35.6892 -113.2969 244° Southwest 401 461 38,000  Level Los Angeles Center
Thu 10:16:07 AM 35.6411 -113.4181 244° Southwest 400 460 38,000  Level Los Angeles Center
Thu 10:17:09 AM 35.5939 -113.5397 245° Southwest 399 459 38,000  Level Los Angeles Center
Thu 10:18:10 AM 35.5458 -113.6608 244° Southwest 398 458 38,000  Level Los Angeles Center
Thu 10:19:12 AM 35.4975 -113.7803 244° Southwest 396 456 38,000  Level Los Angeles Center
Thu 10:20:14 AM 35.4497 -113.9014 244° Southwest 397 457 38,000  Level Los Angeles Center
Thu 10:21:15 AM 35.3939 -114.0456 245° Southwest 395 455 38,000  Level Los Angeles Center
Thu 10:22:17 AM 35.3458 -114.1636 244° Southwest 390 449 38,000  Level Los Angeles Center
Thu 10:23:19 AM 35.2975 -114.2822 243° Southwest 392 451 38,000  Level Los Angeles Center
Thu 10:24:21 AM 35.2508 -114.4019 245° Southwest 392 451 38,000  Level Los Angeles Center
Thu 10:25:22 AM 35.2028 -114.5200 244° Southwest 391 450 38,000  Level Los Angeles Center
Thu 10:26:24 AM 35.1450 -114.6539 242° Southwest 393 452 38,000  Level Los Angeles Center
Thu 10:27:26 AM 35.0978 -114.7722 244° Southwest 390 449 38,000  Level Los Angeles Center
Thu 10:28:28 AM 35.0497 -114.8914 244° Southwest 390 449 38,000  Level Los Angeles Center
Thu 10:29:29 AM 34.9975 -115.0097 242° Southwest 394 453 38,000  Level Los Angeles Center
Thu 10:30:31 AM 34.9514 -115.1294 245° Southwest 393 452 38,000  Level Los Angeles Center
Thu 10:31:33 AM 34.9031 -115.2492 244° Southwest 393 452 38,000  Level Los Angeles Center
Thu 10:32:34 AM 34.8431 -115.3931 243° Southwest 396 456 38,000  Level Los Angeles Center
Thu 10:33:36 AM 34.7919 -115.5136 243° Southwest 400 460 38,000  Level Los Angeles Center
Thu 10:34:38 AM 34.7406 -115.6344 243° Southwest 401 461 38,000  Level Los Angeles Center
Thu 10:35:40 AM 34.6900 -115.7542 243° Southwest 400 460 38,000  Level Los Angeles Center
Thu 10:36:41 AM 34.6397 -115.8744 243° Southwest 400 460 38,000  Level Los Angeles Center
Thu 10:37:43 AM 34.5897 -115.9933 243° Southwest 398 458 38,000  Level Los Angeles Center
Thu 10:38:45 AM 34.5400 -116.1114 243° Southwest 395 455 38,000 -195 Level Los Angeles Center
Thu 10:39:46 AM 34.4783 -116.2536 242° Southwest 396 456 37,600 -1,512 Descending Los Angeles Center
Thu 10:40:48 AM 34.4286 -116.3692 242° Southwest 388 447 34,900 -2,758 Descending Los Angeles Center
Thu 10:41:50 AM 34.3786 -116.4867 243° Southwest 392 451 31,900 -2,516 Descending Los Angeles Center
Thu 10:42:52 AM 34.3278 -116.6028 242° Southwest 390 449 29,700 -2,390 Descending Los Angeles Center
Thu 10:43:53 AM 34.2808 -116.7106 242° Southwest 366 421 27,000 -2,537 Descending Los Angeles Center
Thu 10:44:55 AM 34.2350 -116.8175 243° Southwest 358 412 24,500 -2,371 Descending Los Angeles Center
Thu 10:45:57 AM 34.1906 -116.9186 242° Southwest 344 396 22,100 -2,293 Descending Los Angeles Center
Thu 10:46:58 AM 34.1467 -117.0175 242° Southwest 336 387 19,800 -2,236 Descending Los Angeles Center
Thu 10:47:47 AM 34.1000 -117.1167 240° Southwest 318 366 18,000 -1,156 Descending Southern California TRACON
Thu 10:48:47 AM 34.0667 -117.2167 248° West 312 359 17,700 -1,041 Descending Southern California TRACON
Thu 10:49:48 AM 34.0500 -117.3000 256° West 307 353 15,900 -1,835 Descending Southern California TRACON
Thu 10:50:48 AM 34.0333 -117.4000 259° West 294 338 14,000 -1,650 Descending Southern California TRACON
Thu 10:51:48 AM 34.0667 -117.4833 296° West 312 359 12,600 -1,000 Descending Southern California TRACON
Thu 10:52:42 AM 34.1167 -117.5500 312° West 297 342 12,100 -947 Descending Southern California TRACON
Thu 10:53:42 AM 34.0667 -117.6333 234° Southwest 339 390 10,800 -1,000 Descending Southern California TRACON
Thu 10:54:42 AM 34.0333 -117.7000 239° Southwest 265 305 10,100 -947 Descending Southern California TRACON
Thu 10:55:36 AM 34.0167 -117.7833 256° West 260 299 9,000 -1,263 Descending Southern California TRACON
Thu 10:56:36 AM 34.0000 -117.8667 256° West 268 308 7,700 -1,150 Descending Southern California TRACON
Thu 10:57:36 AM 34.0000 -117.9500 270° West 244 281 6,700 -947 Descending Southern California TRACON
Thu 10:58:30 AM 33.9833 -118.0167 253° West 230 265 5,900 -873 Descending Southern California TRACON
Thu 11:00:21 AM 33.9792 -118.1436 268° West 202 232 4,300 -902 Descending Los Angeles Center
Thu 11:01:23 AM 33.9725 -118.2061 263° West 193 222 3,300 -871 Descending Los Angeles Center
Thu 11:02:25 AM 33.9667 -118.2608 263° West 178 205 2,500 -774 Descending Los Angeles Center
Thu 11:03:27 AM 33.9614 -118.3089 262° West 162 186 1,700 -726 Descending Los Angeles Center
Thu 11:04:29 AM 33.9575 -118.3542 264° West 147 169 1,000 -732 Descending Los Angeles Center
Thu 11:05:30 AM 33.9528 -118.3997 263° West 141 162 200 -787 Descending Los Angeles Center
Thu 11:07:00 AM 33.9333 -118.4000 259° West  Level FlightAware Approximate
Thu 11:14:00 AM 33.9425 -118.4081 259° West  Level Estimated

Login

Don't have an account? Register now (free) for customized features, flight alerts, and more!